Startpagina
METAR-TAF:

METAR-TAF

Vliegvelden :

Chulitna, Alaska, Verenigde Staten

breedte: 62-53N, lengte: 149-50W, hoogte: 381 m

Actueel weer

Dit bericht is 10 uur en het 51 minuten geleden gemaakt, om 00:56 UTC
Wind 5 kt uit het noordnoordwesten
Temperatuur 6°C
Vochtigheid 100%
Druk 997 hPa
Zicht: 24.1 km
Geheel bewolkt op 2800 ft

METAR: PAEC 160056Z 34005KT 15SM OVC028 06/06 A2945 RMK NOCPECI LAST

Tijdstip: 03:47 (11:47 UTC)


TAF: ontbreekt

Waarnemingen en weersverwachtingen van meer dan 4000 vliegvelden (METAR en TAF).

De beschikbare stations zijn de gele en rode punten op de kaart.

Ga met uw muis naar het station om de naam te zien.

Klik dan om waarnemingen en weersverwachtingen te zien.

kaart wijzigen: klik op de groene knoppen met een zwart kruis om in te zoomen, op de groene knop met een streepje om uit te zoomen of op de groene pijlen voor aangrenzende kaarten.


METAR-TAF: